createdAt,value
2022-09-10T00:01:37.816Z,2.50
2022-09-10T00:06:41.094Z,2.83
2022-09-10T00:11:45.926Z,3.05
2022-09-10T00:16:48.900Z,3.08
2022-09-10T00:21:51.072Z,3.10
2022-09-10T00:26:53.763Z,2.97
2022-09-10T00:31:56.335Z,2.65
2022-09-10T00:36:59.548Z,3.00
2022-09-10T00:42:01.724Z,2.58
2022-09-10T00:47:04.838Z,2.53
2022-09-10T00:52:09.948Z,2.70
2022-09-10T00:57:16.182Z,2.97
2022-09-10T01:02:19.261Z,2.90
2022-09-10T01:07:21.796Z,2.88
2022-09-10T01:12:27.182Z,2.78
2022-09-10T01:17:47.912Z,2.90
2022-09-10T01:23:04.073Z,3.15
2022-09-10T01:28:13.711Z,2.92
2022-09-10T01:33:34.225Z,3.25
2022-09-10T01:38:43.972Z,3.20
2022-09-10T01:43:46.882Z,2.75
2022-09-10T01:49:15.284Z,2.80
2022-09-10T01:54:39.937Z,2.70
2022-09-10T01:59:55.495Z,2.47
2022-09-10T02:04:58.100Z,3.10
2022-09-10T02:10:02.801Z,3.35
2022-09-10T02:15:11.650Z,3.60
2022-09-10T02:20:32.572Z,4.47
2022-09-10T02:25:36.614Z,6.23
2022-09-10T02:30:40.838Z,6.55
2022-09-10T02:35:44.283Z,5.38
2022-09-10T02:40:49.211Z,4.30
2022-09-10T02:45:57.189Z,3.78
2022-09-10T02:50:59.833Z,3.55
2022-09-10T02:56:04.472Z,3.30
2022-09-10T03:01:14.817Z,3.13
2022-09-10T03:06:19.607Z,2.97
2022-09-10T03:11:24.107Z,2.95
2022-09-10T03:16:27.772Z,2.50
2022-09-10T03:26:33.697Z,3.00
2022-09-10T03:31:37.001Z,2.78
2022-09-10T03:36:40.088Z,3.15
2022-09-10T03:41:48.369Z,2.78
2022-09-10T03:46:52.165Z,3.17
2022-09-10T03:51:54.897Z,3.35
2022-09-10T03:57:02.665Z,3.50
2022-09-10T04:02:09.457Z,3.65
2022-09-10T04:07:11.879Z,3.75
2022-09-10T04:12:14.238Z,2.97
2022-09-10T04:17:18.143Z,3.10
2022-09-10T04:22:22.207Z,4.03
2022-09-10T04:27:26.750Z,4.57
2022-09-10T04:32:29.250Z,3.72
2022-09-10T04:37:32.047Z,4.40
2022-09-10T04:42:35.682Z,4.22
2022-09-10T04:52:43.450Z,3.50
2022-09-10T04:57:46.082Z,3.00
2022-09-10T05:02:49.763Z,3.40
2022-09-10T05:07:54.647Z,3.30
2022-09-10T05:12:57.170Z,3.07
2022-09-10T05:18:02.279Z,3.17
2022-09-10T05:23:05.779Z,4.20
2022-09-10T05:28:09.653Z,4.22
2022-09-10T05:38:15.662Z,3.67
2022-09-10T05:43:20.801Z,4.50
2022-09-10T05:48:24.254Z,3.80
2022-09-10T05:53:27.076Z,3.75
2022-09-10T05:58:30.205Z,3.47
2022-09-10T06:03:34.362Z,3.95
2022-09-10T06:08:38.743Z,4.47
2022-09-10T06:13:49.997Z,3.60
2022-09-10T06:18:55.384Z,3.40
2022-09-10T06:23:57.963Z,3.85
2022-09-10T06:29:03.578Z,3.85
2022-09-10T06:34:08.715Z,3.53
2022-09-10T06:39:11.043Z,3.60
2022-09-10T06:44:22.542Z,3.60
2022-09-10T06:49:32.107Z,3.65
2022-09-10T06:54:35.048Z,3.72
2022-09-10T06:59:52.423Z,4.30
2022-09-10T07:04:56.980Z,4.10
2022-09-10T07:15:01.490Z,3.65
2022-09-10T07:20:06.648Z,3.80
2022-09-10T07:25:23.452Z,3.60
2022-09-10T07:40:43.886Z,3.33
2022-09-10T07:45:46.965Z,3.03
2022-09-10T07:50:49.869Z,2.58
2022-09-10T07:56:06.040Z,3.70
2022-09-10T08:01:12.771Z,2.95
2022-09-10T08:06:16.365Z,3.22
2022-09-10T08:11:21.442Z,3.30
2022-09-10T08:16:28.960Z,3.30
2022-09-10T08:21:39.021Z,2.90
2022-09-10T08:26:41.891Z,3.35
2022-09-10T08:31:44.411Z,3.75
2022-09-10T08:36:54.495Z,3.70
2022-09-10T08:42:08.940Z,3.92
2022-09-10T08:47:33.824Z,2.90
2022-09-10T08:52:51.885Z,2.95
2022-09-10T08:58:15.893Z,3.20
2022-09-10T09:03:33.412Z,3.10
2022-09-10T09:08:55.152Z,2.72
2022-09-10T09:14:31.472Z,2.85
2022-09-10T09:19:40.273Z,3.65
2022-09-10T09:24:51.532Z,3.17
2022-09-10T09:30:00.484Z,2.90
2022-09-10T09:35:15.819Z,3.78
2022-09-10T09:40:30.589Z,2.90
2022-09-10T09:45:39.057Z,3.08
2022-09-10T09:50:44.101Z,3.70
2022-09-10T09:55:50.416Z,3.20
2022-09-10T10:01:09.872Z,3.00
2022-09-10T10:06:12.629Z,3.28
2022-09-10T10:11:19.946Z,3.13
2022-09-10T10:16:35.763Z,3.33
2022-09-10T10:21:38.196Z,3.88
2022-09-10T10:31:45.264Z,3.40
2022-09-10T10:37:00.039Z,3.17
2022-09-10T10:42:21.366Z,3.80
2022-09-10T10:47:29.782Z,3.30
2022-09-10T10:53:00.119Z,3.70
2022-09-10T10:58:35.006Z,3.50
2022-09-10T11:03:43.031Z,3.40
2022-09-10T11:08:52.076Z,3.40
2022-09-10T11:14:16.651Z,3.20
2022-09-10T11:19:40.166Z,3.28
2022-09-10T11:24:47.525Z,2.70
2022-09-10T11:29:57.134Z,2.65
2022-09-10T11:35:22.355Z,2.40
2022-09-10T11:40:35.428Z,2.47
2022-09-10T11:45:53.915Z,2.00
2022-09-10T11:50:58.603Z,2.00
2022-09-10T11:56:27.752Z,2.38
2022-09-10T12:02:02.972Z,2.40
2022-09-10T12:07:33.558Z,1.92
2022-09-10T12:12:43.227Z,2.75
2022-09-10T12:17:50.508Z,1.73
2022-09-10T12:22:55.058Z,1.25
2022-09-10T12:27:59.223Z,1.58
2022-09-10T12:33:22.141Z,1.40
2022-09-10T12:39:22.260Z,1.20
2022-09-10T12:44:44.704Z,1.50
2022-09-10T12:50:01.013Z,1.60
2022-09-10T12:55:21.681Z,1.58
2022-09-10T13:00:25.708Z,2.00
2022-09-10T13:05:50.511Z,2.38
2022-09-10T13:10:57.365Z,5.22
2022-09-10T13:16:00.441Z,5.60
2022-09-10T13:21:22.962Z,3.13
2022-09-10T13:26:37.583Z,2.00
2022-09-10T13:31:42.791Z,2.60
2022-09-10T13:37:12.359Z,2.30
2022-09-10T13:42:42.611Z,3.95
2022-09-10T13:47:52.113Z,3.72
2022-09-10T13:52:56.881Z,1.90
2022-09-10T13:58:19.685Z,2.60
2022-09-10T14:08:38.982Z,2.05
2022-09-10T14:13:48.938Z,5.38
2022-09-10T14:18:55.548Z,2.05
2022-09-10T14:23:59.152Z,4.22
2022-09-10T14:29:24.675Z,5.25
2022-09-10T14:34:36.427Z,5.15
2022-09-10T14:39:44.286Z,2.33
2022-09-10T14:44:47.323Z,1.60
2022-09-10T14:49:49.717Z,5.07
2022-09-10T14:54:52.016Z,3.92
2022-09-10T14:59:57.369Z,11.05
2022-09-10T15:05:00.134Z,12.07
2022-09-10T15:10:02.542Z,7.90
2022-09-10T15:15:05.885Z,7.50
2022-09-10T15:20:13.613Z,4.63
2022-09-10T15:25:37.545Z,4.80
2022-09-10T15:30:41.033Z,4.10
2022-09-10T15:35:43.399Z,2.88
2022-09-10T15:40:48.384Z,2.50
2022-09-10T15:45:51.395Z,2.40
2022-09-10T15:50:53.832Z,2.63
2022-09-10T15:55:59.671Z,2.60
2022-09-10T16:01:07.635Z,3.33
2022-09-10T16:06:10.501Z,5.75
2022-09-10T16:11:12.632Z,3.30
2022-09-10T16:16:18.818Z,2.25
2022-09-10T16:21:28.771Z,1.70
2022-09-10T16:26:34.701Z,1.30
2022-09-10T16:31:39.271Z,1.50
2022-09-10T16:36:42.000Z,1.33
2022-09-10T16:41:46.529Z,2.60
2022-09-10T16:46:49.452Z,3.47
2022-09-10T16:56:54.140Z,3.47
2022-09-10T17:01:59.630Z,3.55
2022-09-10T17:07:02.517Z,2.83
2022-09-10T17:12:05.177Z,5.75
2022-09-10T17:17:07.870Z,2.40
2022-09-10T17:22:11.201Z,1.77
2022-09-10T17:27:13.645Z,1.75
2022-09-10T17:32:16.119Z,1.50
2022-09-10T17:37:19.912Z,1.70
2022-09-10T17:42:22.250Z,2.10
2022-09-10T17:47:24.702Z,2.80
2022-09-10T17:52:27.270Z,2.20
2022-09-10T17:57:30.193Z,2.38
2022-09-10T18:02:33.610Z,2.42
2022-09-10T18:07:36.719Z,4.30
2022-09-10T18:12:39.181Z,2.97
2022-09-10T18:17:41.754Z,2.88
2022-09-10T18:22:44.079Z,2.58
2022-09-10T18:27:47.562Z,2.50
2022-09-10T18:32:52.253Z,2.78
2022-09-10T18:37:57.103Z,2.72
2022-09-10T18:42:59.752Z,2.60
2022-09-10T18:48:02.364Z,2.53
2022-09-10T18:53:04.897Z,2.60
2022-09-10T18:58:07.366Z,2.90
2022-09-10T19:03:09.696Z,2.70
2022-09-10T19:08:12.404Z,3.20
2022-09-10T19:13:15.051Z,3.47
2022-09-10T19:18:17.753Z,3.72
2022-09-10T19:23:20.497Z,4.43
2022-09-10T19:28:23.856Z,4.00
2022-09-10T19:33:27.037Z,4.50
2022-09-10T19:43:41.175Z,4.43
2022-09-10T19:48:45.369Z,4.80
2022-09-10T19:53:49.584Z,4.80
2022-09-10T19:58:55.786Z,4.28
2022-09-10T20:04:01.219Z,3.30
2022-09-10T20:09:06.248Z,2.60
2022-09-10T20:14:13.783Z,2.95
2022-09-10T22:53:19.616Z,11.63
2022-09-10T22:58:22.111Z,11.20
2022-09-10T23:03:25.649Z,9.10
2022-09-10T23:08:28.725Z,8.10
2022-09-10T23:13:34.736Z,5.55
2022-09-10T23:18:38.884Z,4.00
2022-09-10T23:23:45.313Z,3.30
2022-09-10T23:28:48.273Z,2.70
2022-09-10T23:34:00.762Z,2.55
2022-09-10T23:39:06.626Z,2.70
2022-09-10T23:44:20.815Z,2.35
2022-09-10T23:49:26.462Z,2.53
2022-09-10T23:54:31.306Z,2.42
2022-09-10T23:59:33.526Z,2.65
